createdAt,value
2022-12-01T00:00:12.258Z,941.78
2022-12-01T00:01:12.231Z,941.81
2022-12-01T00:02:12.349Z,941.78
2022-12-01T00:03:12.405Z,941.81
2022-12-01T00:04:12.200Z,941.79
2022-12-01T00:05:12.181Z,941.85
2022-12-01T00:06:12.204Z,941.80
2022-12-01T00:07:12.182Z,941.80
2022-12-01T00:08:12.148Z,941.75
2022-12-01T00:09:16.475Z,941.76
2022-12-01T00:10:13.128Z,941.74
2022-12-01T00:11:12.164Z,941.74
2022-12-01T00:12:12.125Z,941.71
2022-12-01T00:13:12.167Z,941.72
2022-12-01T00:14:12.121Z,941.69
2022-12-01T00:15:12.076Z,941.67
2022-12-01T00:16:12.152Z,941.67
2022-12-01T00:17:27.018Z,941.68
2022-12-01T00:18:12.051Z,941.65
2022-12-01T00:19:12.092Z,941.69
2022-12-01T00:20:12.035Z,941.65
2022-12-01T00:21:12.008Z,941.67
2022-12-01T00:22:12.021Z,941.66
2022-12-01T00:23:12.002Z,941.66
2022-12-01T00:24:12.047Z,941.62
2022-12-01T00:25:11.963Z,941.58
2022-12-01T00:26:11.957Z,941.60
2022-12-01T00:27:11.944Z,941.64
2022-12-01T00:28:11.938Z,941.58
2022-12-01T00:29:11.949Z,941.57
2022-12-01T00:30:11.940Z,941.56
2022-12-01T00:31:11.908Z,941.58
2022-12-01T00:32:11.977Z,941.59
2022-12-01T00:33:11.893Z,941.56
2022-12-01T00:34:11.937Z,941.58
2022-12-01T00:35:11.862Z,941.55
2022-12-01T00:36:11.867Z,941.56
2022-12-01T00:37:11.842Z,941.47
2022-12-01T00:38:11.912Z,941.47
2022-12-01T00:39:11.822Z,941.48
2022-12-01T00:40:11.896Z,941.47
2022-12-01T00:41:11.802Z,941.49
2022-12-01T00:42:13.517Z,941.51
2022-12-01T00:43:11.783Z,941.53
2022-12-01T00:44:11.770Z,941.45
2022-12-01T00:45:11.761Z,941.55
2022-12-01T00:46:11.942Z,941.50
2022-12-01T00:47:11.765Z,941.55
2022-12-01T00:48:11.756Z,941.61
2022-12-01T00:49:11.777Z,941.54
2022-12-01T00:50:11.713Z,941.59
2022-12-01T00:51:11.716Z,941.59
2022-12-01T00:52:11.695Z,941.60
2022-12-01T00:53:11.716Z,941.60
2022-12-01T00:54:11.693Z,941.63
2022-12-01T00:55:12.496Z,941.59
2022-12-01T00:56:11.665Z,941.58
2022-12-01T00:57:11.668Z,941.58
2022-12-01T00:58:11.632Z,941.55
2022-12-01T00:59:11.630Z,941.56
2022-12-01T01:00:11.621Z,941.57
2022-12-01T01:01:12.135Z,941.55
2022-12-01T01:02:11.657Z,941.58
2022-12-01T01:03:11.580Z,941.59
2022-12-01T01:04:11.586Z,941.63
2022-12-01T01:05:11.569Z,941.61
2022-12-01T01:06:11.582Z,941.58
2022-12-01T01:07:11.547Z,941.57
2022-12-01T01:08:11.538Z,941.61
2022-12-01T01:09:11.536Z,941.58
2022-12-01T01:10:11.527Z,941.58
2022-12-01T01:11:11.500Z,941.63
2022-12-01T01:12:11.535Z,941.60
2022-12-01T01:13:11.495Z,941.61
2022-12-01T01:14:11.468Z,941.63
2022-12-01T01:15:11.473Z,941.65
2022-12-01T01:16:11.547Z,941.56
2022-12-01T01:17:11.508Z,941.58
2022-12-01T01:18:11.458Z,941.59
2022-12-01T01:19:11.403Z,941.58
2022-12-01T01:20:11.410Z,941.55
2022-12-01T01:21:11.421Z,941.53
2022-12-01T01:22:11.405Z,941.51
2022-12-01T01:23:11.366Z,941.51
2022-12-01T01:24:11.357Z,941.51
2022-12-01T01:25:11.433Z,941.55
2022-12-01T01:26:11.365Z,941.51
2022-12-01T01:27:11.380Z,941.52
2022-12-01T01:28:11.320Z,941.52
2022-12-01T01:29:11.302Z,941.49
2022-12-01T01:30:11.315Z,941.49
2022-12-01T01:31:11.388Z,941.54
2022-12-01T01:32:11.293Z,941.54
2022-12-01T01:33:11.280Z,941.53
2022-12-01T01:34:11.250Z,941.54
2022-12-01T01:35:11.234Z,941.51
2022-12-01T01:36:11.227Z,941.55
2022-12-01T01:37:11.229Z,941.52
2022-12-01T01:38:11.257Z,941.51
2022-12-01T01:39:11.211Z,941.55
2022-12-01T01:40:11.217Z,941.57
2022-12-01T01:41:11.173Z,941.53
2022-12-01T01:42:11.205Z,941.51
2022-12-01T01:43:11.205Z,941.50
2022-12-01T01:44:11.171Z,941.47
2022-12-01T01:45:11.142Z,941.50
2022-12-01T01:46:11.169Z,941.46
2022-12-01T01:47:11.113Z,941.51
2022-12-01T01:48:11.153Z,941.49
2022-12-01T01:49:11.109Z,941.50
2022-12-01T01:50:11.095Z,941.51
2022-12-01T01:51:11.134Z,941.49
2022-12-01T01:52:11.064Z,941.52
2022-12-01T01:53:11.067Z,941.51
2022-12-01T01:54:11.078Z,941.48
2022-12-01T01:55:11.030Z,941.47
2022-12-01T01:56:11.072Z,941.49
2022-12-01T01:57:11.062Z,941.51
2022-12-01T01:58:11.029Z,941.50
2022-12-01T01:59:10.984Z,941.50
2022-12-01T02:00:10.980Z,941.47
2022-12-01T02:01:11.080Z,941.53
2022-12-01T03:18:59.203Z,941.50
2022-12-01T03:19:51.641Z,941.46
2022-12-01T03:20:51.375Z,941.44
2022-12-01T03:21:51.348Z,941.48
2022-12-01T03:22:51.331Z,941.43
2022-12-01T03:23:51.350Z,941.45
2022-12-01T03:24:51.316Z,941.43
2022-12-01T03:25:51.298Z,941.43
2022-12-01T03:26:51.280Z,941.48
2022-12-01T03:28:19.670Z,941.45
2022-12-01T03:28:52.297Z,941.40
2022-12-01T03:29:51.482Z,941.47
2022-12-01T03:30:51.344Z,941.41
2022-12-01T03:31:51.232Z,941.39
2022-12-01T03:32:51.224Z,941.48
2022-12-01T03:33:51.221Z,941.43
2022-12-01T03:34:51.334Z,941.48
2022-12-01T03:35:51.206Z,941.48
2022-12-01T03:36:51.193Z,941.52
2022-12-01T03:37:51.186Z,941.47
2022-12-01T03:38:51.865Z,941.47
2022-12-01T03:39:54.713Z,941.48
2022-12-01T03:40:52.178Z,941.49
2022-12-01T03:41:51.149Z,941.49
2022-12-01T03:42:51.121Z,941.48
2022-12-01T03:43:51.119Z,941.50
2022-12-01T03:44:51.115Z,941.52
2022-12-01T03:45:51.162Z,941.52
2022-12-01T03:46:51.109Z,941.51
2022-12-01T03:47:51.096Z,941.48
2022-12-01T03:48:51.088Z,941.49
2022-12-01T03:49:51.393Z,941.47
2022-12-01T03:50:51.072Z,941.49
2022-12-01T03:51:51.072Z,941.49
2022-12-01T03:52:51.026Z,941.51
2022-12-01T03:53:51.055Z,941.50
2022-12-01T03:54:51.045Z,941.51
2022-12-01T03:55:50.995Z,941.47
2022-12-01T03:56:51.004Z,941.52
2022-12-01T03:57:50.982Z,941.47
2022-12-01T03:58:50.986Z,941.46
2022-12-01T03:59:51.296Z,941.47
2022-12-01T04:00:50.944Z,941.45
2022-12-01T04:01:50.971Z,941.47
2022-12-01T04:02:50.982Z,941.50
2022-12-01T04:03:50.916Z,941.53
2022-12-01T04:04:50.944Z,941.50
2022-12-01T04:05:50.894Z,941.51
2022-12-01T04:06:50.933Z,941.55
2022-12-01T04:07:50.916Z,941.53
2022-12-01T04:08:50.890Z,941.52
2022-12-01T04:09:51.262Z,941.55
2022-12-01T04:10:50.847Z,941.51
2022-12-01T04:11:50.852Z,941.54
2022-12-01T04:12:50.823Z,941.54
2022-12-01T04:13:50.853Z,941.57
2022-12-01T04:14:51.378Z,941.53
2022-12-01T04:15:50.831Z,941.56
2022-12-01T04:16:50.795Z,941.56
2022-12-01T04:17:50.768Z,941.58
2022-12-01T04:18:50.782Z,941.53
2022-12-01T04:19:51.053Z,941.53
2022-12-01T04:20:50.757Z,941.55
2022-12-01T04:21:50.735Z,941.55
2022-12-01T04:22:50.817Z,941.57
2022-12-01T04:23:50.710Z,941.53
2022-12-01T04:24:50.711Z,941.57
2022-12-01T04:25:50.708Z,941.57
2022-12-01T04:26:50.686Z,941.55
2022-12-01T04:27:50.751Z,941.54
2022-12-01T04:28:50.728Z,941.54
2022-12-01T04:29:51.027Z,941.54
2022-12-01T04:30:50.669Z,941.55
2022-12-01T04:31:50.751Z,941.55
2022-12-01T04:32:50.644Z,941.53
2022-12-01T04:33:51.378Z,941.54
2022-12-01T04:34:50.622Z,941.57
2022-12-01T04:35:51.367Z,941.54
2022-12-01T04:36:50.589Z,941.52
2022-12-01T04:37:50.573Z,941.55
2022-12-01T04:38:50.593Z,941.50
2022-12-01T04:39:50.869Z,941.55
2022-12-01T04:40:50.569Z,941.56
2022-12-01T04:41:50.554Z,941.51
2022-12-01T04:42:50.529Z,941.51
2022-12-01T04:43:50.523Z,941.54
2022-12-01T04:44:50.555Z,941.51
2022-12-01T04:45:50.491Z,941.54
2022-12-01T04:46:50.666Z,941.60
2022-12-01T04:47:55.393Z,941.56
2022-12-01T04:48:50.465Z,941.51
2022-12-01T04:49:50.687Z,941.51
2022-12-01T04:50:50.483Z,941.56
2022-12-01T04:51:50.495Z,941.59
2022-12-01T04:52:50.429Z,941.50
2022-12-01T04:53:50.444Z,941.52
2022-12-01T04:54:50.439Z,941.56
2022-12-01T04:55:50.406Z,941.57
2022-12-01T04:56:50.380Z,941.56
2022-12-01T04:57:50.495Z,941.55
2022-12-01T04:58:50.383Z,941.55
2022-12-01T04:59:50.535Z,941.59
2022-12-01T05:00:50.397Z,941.60
2022-12-01T05:01:50.408Z,941.58
2022-12-01T05:02:50.381Z,941.60
2022-12-01T05:03:50.390Z,941.62
2022-12-01T05:04:50.336Z,941.58
2022-12-01T05:05:50.360Z,941.61
2022-12-01T05:06:50.284Z,941.65
2022-12-01T05:07:50.330Z,941.60
2022-12-01T05:08:50.327Z,941.62
2022-12-01T05:09:50.734Z,941.64
2022-12-01T05:10:50.270Z,941.62
2022-12-01T05:11:50.231Z,941.58
2022-12-01T05:12:50.224Z,941.60
2022-12-01T05:13:50.215Z,941.58
2022-12-01T05:14:50.216Z,941.61
2022-12-01T05:15:50.288Z,941.61
2022-12-01T05:16:50.235Z,941.60
2022-12-01T05:17:50.211Z,941.61
2022-12-01T05:18:50.211Z,941.64
2022-12-01T05:19:50.478Z,941.61
2022-12-01T05:20:50.140Z,941.66
2022-12-01T05:21:50.164Z,941.60
2022-12-01T05:23:05.200Z,941.65
2022-12-01T05:23:51.127Z,941.63
2022-12-01T05:24:50.102Z,941.63
2022-12-01T05:25:50.130Z,941.66
2022-12-01T05:26:50.182Z,941.66
2022-12-01T05:27:50.066Z,941.66
2022-12-01T05:28:50.062Z,941.67
2022-12-01T05:29:50.379Z,941.65
2022-12-01T05:30:50.056Z,941.63
2022-12-01T05:31:50.113Z,941.63
2022-12-01T05:32:50.092Z,941.69
2022-12-01T05:33:50.014Z,941.68
2022-12-01T05:34:50.006Z,941.62
2022-12-01T05:35:50.007Z,941.64
2022-12-01T05:36:49.988Z,941.66
2022-12-01T05:37:49.987Z,941.64
2022-12-01T05:38:49.997Z,941.64
2022-12-01T05:39:50.265Z,941.62
2022-12-01T05:40:49.948Z,941.64
2022-12-01T05:41:49.931Z,941.67
2022-12-01T05:42:49.942Z,941.67
2022-12-01T05:43:49.923Z,941.63
2022-12-01T05:44:49.958Z,941.68
2022-12-01T05:45:50.011Z,941.63
2022-12-01T05:46:49.958Z,941.64
2022-12-01T05:47:49.864Z,941.66
2022-12-01T05:48:49.893Z,941.70
2022-12-01T05:49:50.258Z,941.67
2022-12-01T05:50:49.853Z,941.65
2022-12-01T05:51:49.858Z,941.68
2022-12-01T05:52:49.822Z,941.68
2022-12-01T05:53:49.809Z,941.63
2022-12-01T05:54:49.820Z,941.67
2022-12-01T05:55:49.786Z,941.70
2022-12-01T05:56:49.827Z,941.71
2022-12-01T05:57:49.786Z,941.68
2022-12-01T05:58:49.785Z,941.73
2022-12-01T05:59:49.890Z,941.71
2022-12-01T06:00:49.754Z,941.72
2022-12-01T06:01:49.845Z,941.78
2022-12-01T06:02:49.745Z,941.72
2022-12-01T06:03:49.770Z,941.75
2022-12-01T06:04:49.713Z,941.76
2022-12-01T06:05:49.696Z,941.77
2022-12-01T06:06:49.729Z,941.79
2022-12-01T06:07:49.820Z,941.76
2022-12-01T06:08:49.697Z,941.78
2022-12-01T06:09:50.712Z,941.77
2022-12-01T06:10:49.688Z,941.78
2022-12-01T06:11:52.528Z,941.83
2022-12-01T06:12:49.681Z,941.76
2022-12-01T06:13:49.611Z,941.79
2022-12-01T06:14:49.670Z,941.77
2022-12-01T06:15:49.612Z,941.75
2022-12-01T06:16:49.747Z,941.79
2022-12-01T06:17:49.573Z,941.77
2022-12-01T06:18:49.587Z,941.77
2022-12-01T06:19:50.283Z,941.80
2022-12-01T06:20:49.531Z,941.78
2022-12-01T06:21:49.592Z,941.84
2022-12-01T06:22:49.518Z,941.81
2022-12-01T06:23:49.506Z,941.80
2022-12-01T06:24:49.514Z,941.80
2022-12-01T06:25:49.509Z,941.79
2022-12-01T06:26:49.484Z,941.85
2022-12-01T06:27:50.405Z,941.82
2022-12-01T06:28:49.505Z,941.83
2022-12-01T06:29:49.821Z,941.85
2022-12-01T06:30:49.480Z,941.86
2022-12-01T06:31:49.501Z,941.85
2022-12-01T06:32:49.466Z,941.87
2022-12-01T06:33:49.432Z,941.88
2022-12-01T06:34:49.441Z,941.85
2022-12-01T06:35:49.386Z,941.85
2022-12-01T06:36:49.411Z,941.92
2022-12-01T06:37:49.366Z,941.94
2022-12-01T06:38:49.356Z,941.89
2022-12-01T06:39:49.539Z,941.89
2022-12-01T06:40:49.333Z,941.90
2022-12-01T06:41:49.329Z,941.88
2022-12-01T06:42:49.977Z,941.90
2022-12-01T06:43:49.318Z,941.89
2022-12-01T06:44:49.328Z,941.91
2022-12-01T06:45:49.362Z,941.94
2022-12-01T06:46:49.304Z,941.93
2022-12-01T06:47:49.273Z,941.97
2022-12-01T06:48:49.309Z,941.94
2022-12-01T06:49:49.573Z,941.95
2022-12-01T06:50:49.255Z,941.96
2022-12-01T06:51:49.227Z,941.93
2022-12-01T06:52:49.316Z,941.97
2022-12-01T06:53:49.220Z,941.97
2022-12-01T06:54:49.194Z,942.00
2022-12-01T06:55:49.182Z,942.02
2022-12-01T06:56:49.187Z,942.01
2022-12-01T06:57:49.217Z,942.00
2022-12-01T06:58:49.175Z,941.99
2022-12-01T06:59:49.488Z,942.03
2022-12-01T07:00:52.233Z,942.01
2022-12-01T07:01:49.190Z,942.08
2022-12-01T07:02:49.250Z,942.07
2022-12-01T07:03:49.188Z,942.05
2022-12-01T07:04:49.156Z,942.03
2022-12-01T07:05:49.089Z,942.05
2022-12-01T07:06:49.149Z,942.08
2022-12-01T07:07:49.132Z,942.09
2022-12-01T07:08:49.078Z,942.07
2022-12-01T07:09:49.474Z,942.11
2022-12-01T07:10:49.107Z,942.07
2022-12-01T07:11:49.125Z,942.08
2022-12-01T07:12:49.090Z,942.08
2022-12-01T07:13:49.032Z,942.11
2022-12-01T07:14:49.210Z,942.09
2022-12-01T07:15:49.078Z,942.10
2022-12-01T07:16:49.079Z,942.12
2022-12-01T07:17:48.994Z,942.13
2022-12-01T07:18:49.051Z,942.11
2022-12-01T07:19:49.442Z,942.14
2022-12-01T07:20:48.972Z,942.13
2022-12-01T07:21:49.055Z,942.14
2022-12-01T07:22:48.920Z,942.14
2022-12-01T07:23:48.944Z,942.15
2022-12-01T07:24:48.914Z,942.15
2022-12-01T07:25:48.937Z,942.18
2022-12-01T07:26:49.002Z,942.16
2022-12-01T07:27:48.961Z,942.18
2022-12-01T07:28:48.923Z,942.20
2022-12-01T07:29:49.063Z,942.17
2022-12-01T07:30:48.925Z,942.21
2022-12-01T07:31:48.876Z,942.22
2022-12-01T07:32:48.847Z,942.27
2022-12-01T07:33:48.888Z,942.27
2022-12-01T07:34:48.837Z,942.32
2022-12-01T07:35:48.810Z,942.27
2022-12-01T07:36:48.801Z,942.32
2022-12-01T07:37:48.827Z,942.27
2022-12-01T07:38:48.748Z,942.26
2022-12-01T07:39:49.862Z,942.30
2022-12-01T07:40:48.824Z,942.28
2022-12-01T07:41:48.820Z,942.29
2022-12-01T07:42:48.723Z,942.23
2022-12-01T07:43:48.713Z,942.22
2022-12-01T07:44:48.694Z,942.25
2022-12-01T07:45:48.838Z,942.25
2022-12-01T07:46:48.768Z,942.27
2022-12-01T07:47:48.835Z,942.27
2022-12-01T07:48:48.711Z,942.27
2022-12-01T07:49:48.883Z,942.23
2022-12-01T07:50:48.652Z,942.27
2022-12-01T07:51:48.649Z,942.27
2022-12-01T07:52:48.655Z,942.27
2022-12-01T07:53:48.616Z,942.26
2022-12-01T07:54:48.587Z,942.31
2022-12-01T07:55:48.580Z,942.26
2022-12-01T07:56:48.639Z,942.26
2022-12-01T07:57:48.582Z,942.25
2022-12-01T07:58:48.577Z,942.25
2022-12-01T07:59:48.905Z,942.26
2022-12-01T08:00:48.579Z,942.19
2022-12-01T08:01:48.585Z,942.28
2022-12-01T08:02:48.710Z,942.26
2022-12-01T08:03:48.601Z,942.27
2022-12-01T08:04:48.510Z,942.31
2022-12-01T08:05:48.484Z,942.26
2022-12-01T08:06:48.504Z,942.26
2022-12-01T08:07:48.563Z,942.28
2022-12-01T08:08:48.455Z,942.28
2022-12-01T08:09:48.796Z,942.25
2022-12-01T08:10:48.429Z,942.25
2022-12-01T08:11:48.451Z,942.27
2022-12-01T08:12:48.407Z,942.23
2022-12-01T08:13:48.402Z,942.31
2022-12-01T08:14:48.443Z,942.31
2022-12-01T08:15:48.404Z,942.27
2022-12-01T08:16:48.360Z,942.29
2022-12-01T08:17:48.362Z,942.29
2022-12-01T08:18:48.400Z,942.29
2022-12-01T08:19:55.887Z,942.32
2022-12-01T08:20:48.345Z,942.32
2022-12-01T08:21:48.341Z,942.28
2022-12-01T08:22:48.332Z,942.32
2022-12-01T08:23:48.305Z,942.30
2022-12-01T08:24:48.290Z,942.27
2022-12-01T08:25:48.280Z,942.28
2022-12-01T08:26:48.299Z,942.30
2022-12-01T08:27:48.291Z,942.28
2022-12-01T08:28:48.238Z,942.23
2022-12-01T08:29:48.520Z,942.26
2022-12-01T08:30:48.336Z,942.32
2022-12-01T08:31:48.221Z,942.26
2022-12-01T08:32:48.278Z,942.27
2022-12-01T08:33:48.202Z,942.27
2022-12-01T08:34:53.079Z,942.25
2022-12-01T08:35:49.216Z,942.27
2022-12-01T08:36:48.201Z,942.29
2022-12-01T08:37:48.170Z,942.28
2022-12-01T08:38:48.236Z,942.27
2022-12-01T08:39:48.568Z,942.27
2022-12-01T08:40:48.126Z,942.28
2022-12-01T08:41:48.128Z,942.28
2022-12-01T08:42:48.102Z,942.28
2022-12-01T08:44:03.482Z,942.29
2022-12-01T08:44:49.235Z,942.26
2022-12-01T08:45:48.082Z,942.26
2022-12-01T08:46:48.130Z,942.27
2022-12-01T08:47:48.982Z,942.31
2022-12-01T08:48:48.149Z,942.31
2022-12-01T08:49:48.550Z,942.25
2022-12-01T08:50:48.063Z,942.32
2022-12-01T08:51:48.029Z,942.26
2022-12-01T08:52:48.056Z,942.28
2022-12-01T08:53:48.037Z,942.30
2022-12-01T08:54:48.104Z,942.33
2022-12-01T08:55:47.987Z,942.31
2022-12-01T08:56:48.003Z,942.29
2022-12-01T08:57:47.994Z,942.32
2022-12-01T08:58:47.994Z,942.32
2022-12-01T08:59:48.198Z,942.31
2022-12-01T09:00:47.993Z,942.32
2022-12-01T09:01:47.993Z,942.30
2022-12-01T09:02:48.036Z,942.29
2022-12-01T09:03:47.895Z,942.30
2022-12-01T09:04:47.907Z,942.30
2022-12-01T09:05:47.860Z,942.32
2022-12-01T09:06:47.842Z,942.34
2022-12-01T09:07:47.926Z,942.32
2022-12-01T09:08:47.862Z,942.32
2022-12-01T09:09:48.199Z,942.39
2022-12-01T09:10:47.858Z,942.33
2022-12-01T09:11:47.822Z,942.35
2022-12-01T09:12:47.794Z,942.39
2022-12-01T09:13:54.330Z,942.32
2022-12-01T09:14:48.886Z,942.32
2022-12-01T09:15:47.812Z,942.35
2022-12-01T09:16:47.839Z,942.33
2022-12-01T09:17:47.849Z,942.34
2022-12-01T09:18:47.725Z,942.38
2022-12-01T09:19:48.357Z,942.41
2022-12-01T09:20:47.704Z,942.38
2022-12-01T09:21:48.014Z,942.39
2022-12-01T09:22:47.695Z,942.37
2022-12-01T09:23:47.713Z,942.36
2022-12-01T09:24:47.679Z,942.37
2022-12-01T09:25:47.654Z,942.38
2022-12-01T09:26:48.472Z,942.35
2022-12-01T09:27:47.649Z,942.36
2022-12-01T09:28:47.621Z,942.34
2022-12-01T09:29:48.023Z,942.40
2022-12-01T09:30:47.607Z,942.35
2022-12-01T09:31:47.742Z,942.34
2022-12-01T09:32:47.599Z,942.39
2022-12-01T09:33:47.653Z,942.37
2022-12-01T09:34:47.578Z,942.33
2022-12-01T09:35:47.581Z,942.37
2022-12-01T09:36:47.629Z,942.34
2022-12-01T09:37:47.584Z,942.35
2022-12-01T09:38:47.515Z,942.33
2022-12-01T09:39:47.976Z,942.31
2022-12-01T09:40:47.518Z,942.30
2022-12-01T09:41:47.502Z,942.29
2022-12-01T09:42:47.557Z,942.32
2022-12-01T09:43:47.501Z,942.28
2022-12-01T09:44:49.429Z,942.33
2022-12-01T09:45:47.448Z,942.26
2022-12-01T09:46:47.517Z,942.27
2022-12-01T09:47:47.480Z,942.26
2022-12-01T09:48:47.416Z,942.26
2022-12-01T09:49:47.911Z,942.23
2022-12-01T09:50:47.392Z,942.25
2022-12-01T09:51:47.396Z,942.21
2022-12-01T09:52:47.403Z,942.23
2022-12-01T09:53:47.395Z,942.18
2022-12-01T09:54:47.347Z,942.23
2022-12-01T09:55:47.468Z,942.18
2022-12-01T09:56:47.343Z,942.16
2022-12-01T09:57:47.325Z,942.17
2022-12-01T09:58:47.350Z,942.15
2022-12-01T09:59:47.743Z,942.14
2022-12-01T10:00:47.370Z,942.09
2022-12-01T10:01:47.299Z,942.15
2022-12-01T10:02:47.267Z,942.10
2022-12-01T10:03:47.258Z,942.09
2022-12-01T10:04:47.278Z,942.12
2022-12-01T10:06:24.655Z,942.11
2022-12-01T10:06:48.229Z,942.13
2022-12-01T10:07:47.289Z,942.08
2022-12-01T10:08:47.225Z,942.11
2022-12-01T10:09:47.519Z,942.08
2022-12-01T10:10:47.209Z,942.09
2022-12-01T10:11:47.169Z,942.10
2022-12-01T10:12:47.217Z,942.10
2022-12-01T10:13:47.160Z,942.10
2022-12-01T10:14:47.274Z,942.06
2022-12-01T10:15:47.131Z,942.11
2022-12-01T10:16:47.122Z,942.11
2022-12-01T10:17:47.152Z,942.10
2022-12-01T10:18:47.094Z,942.11
2022-12-01T10:19:47.378Z,942.12
2022-12-01T10:20:47.075Z,942.09
2022-12-01T10:21:47.066Z,942.12
2022-12-01T10:22:47.070Z,942.07
2022-12-01T10:23:47.081Z,942.12
2022-12-01T10:24:47.067Z,942.07
2022-12-01T10:25:47.025Z,942.13
2022-12-01T10:26:47.012Z,942.09
2022-12-01T10:27:47.005Z,942.07
2022-12-01T10:28:47.037Z,942.08
2022-12-01T10:29:47.924Z,942.07
2022-12-01T10:30:47.020Z,942.02
2022-12-01T10:31:46.985Z,942.04
2022-12-01T10:32:46.962Z,941.98
2022-12-01T10:33:47.225Z,942.01
2022-12-01T10:34:46.934Z,942.04
2022-12-01T10:35:46.966Z,942.03
2022-12-01T10:36:46.926Z,942.01
2022-12-01T10:37:46.937Z,942.03
2022-12-01T10:38:46.895Z,942.00
2022-12-01T10:39:46.889Z,941.98
2022-12-01T10:40:46.865Z,941.95
2022-12-01T10:41:46.964Z,941.95
2022-12-01T10:42:46.890Z,941.96
2022-12-01T10:43:46.836Z,941.96
2022-12-01T10:44:46.833Z,941.89
2022-12-01T10:45:46.860Z,941.93
2022-12-01T10:46:46.835Z,941.92
2022-12-01T10:47:56.137Z,941.89
2022-12-01T10:48:47.846Z,941.91
2022-12-01T10:49:47.013Z,941.93
2022-12-01T10:50:46.766Z,941.94
2022-12-01T10:51:46.744Z,941.89
2022-12-01T10:52:46.739Z,941.87
2022-12-01T10:53:47.469Z,941.86
2022-12-01T10:54:46.765Z,941.88
2022-12-01T10:55:48.219Z,941.80
2022-12-01T10:56:46.727Z,941.85
2022-12-01T10:57:46.709Z,941.83
2022-12-01T10:58:46.698Z,941.82
2022-12-01T10:59:46.763Z,941.78
2022-12-01T11:01:02.409Z,941.80
2022-12-01T11:01:47.787Z,941.76
2022-12-01T11:02:46.864Z,941.75
2022-12-01T11:03:46.640Z,941.76
2022-12-01T11:04:46.649Z,941.78
2022-12-01T11:05:46.636Z,941.76
2022-12-01T11:06:46.641Z,941.76
2022-12-01T11:07:46.643Z,941.76
2022-12-01T11:08:46.577Z,941.78
2022-12-01T11:09:46.875Z,941.78
2022-12-01T11:10:46.581Z,941.72
2022-12-01T11:11:46.622Z,941.77
2022-12-01T11:12:46.531Z,941.73
2022-12-01T11:13:46.518Z,941.71
2022-12-01T11:14:46.575Z,941.74
2022-12-01T11:15:46.505Z,941.75
2022-12-01T11:16:46.713Z,941.76
2022-12-01T11:17:46.519Z,941.76
2022-12-01T11:18:46.574Z,941.73
2022-12-01T11:19:46.677Z,941.75
2022-12-01T11:20:46.553Z,941.70
2022-12-01T11:21:46.494Z,941.74
2022-12-01T11:22:46.465Z,941.73
2022-12-01T11:23:46.413Z,941.73
2022-12-01T11:24:46.399Z,941.72
2022-12-01T11:25:46.429Z,941.74
2022-12-01T11:26:46.378Z,941.77
2022-12-01T11:27:46.416Z,941.73
2022-12-01T11:28:46.364Z,941.67
2022-12-01T11:29:46.515Z,941.70
2022-12-01T11:30:46.341Z,941.66
2022-12-01T11:31:46.448Z,941.65
2022-12-01T11:32:46.318Z,941.63
2022-12-01T11:33:46.332Z,941.62
2022-12-01T11:34:46.785Z,941.65
2022-12-01T11:35:46.355Z,941.64
2022-12-01T11:36:46.957Z,941.62
2022-12-01T11:37:54.958Z,941.63
2022-12-01T11:38:47.280Z,941.64
2022-12-01T11:39:46.316Z,941.66
2022-12-01T11:40:46.240Z,941.61
2022-12-01T11:41:46.271Z,941.60
2022-12-01T11:42:46.216Z,941.59
2022-12-01T11:43:50.519Z,941.61
2022-12-01T11:45:47.231Z,941.60
2022-12-01T11:46:55.516Z,941.58
2022-12-01T11:47:47.213Z,941.59
2022-12-01T11:48:46.159Z,941.55
2022-12-01T11:49:47.459Z,941.61
2022-12-01T11:50:46.151Z,941.61
2022-12-01T11:51:46.152Z,941.57
2022-12-01T11:52:46.130Z,941.62
2022-12-01T11:53:46.139Z,941.61
2022-12-01T11:54:46.083Z,941.62
2022-12-01T11:55:46.076Z,941.60
2022-12-01T11:56:46.701Z,941.62
2022-12-01T11:57:46.069Z,941.58
2022-12-01T11:58:46.167Z,941.57
2022-12-01T11:59:46.064Z,941.55
2022-12-01T12:00:46.037Z,941.59
2022-12-01T12:01:46.028Z,941.57
2022-12-01T12:02:46.082Z,941.56
2022-12-01T12:03:46.058Z,941.59
2022-12-01T12:04:46.048Z,941.58
2022-12-01T12:05:45.987Z,941.58
2022-12-01T12:06:45.971Z,941.58
2022-12-01T12:07:45.990Z,941.59
2022-12-01T12:08:46.051Z,941.55
2022-12-01T12:09:46.060Z,941.56
2022-12-01T12:10:46.053Z,941.54
2022-12-01T12:11:45.906Z,941.57
2022-12-01T12:12:45.902Z,941.52
2022-12-01T12:13:45.884Z,941.53
2022-12-01T12:14:45.986Z,941.54
2022-12-01T12:15:45.932Z,941.54
2022-12-01T12:16:45.903Z,941.52
2022-12-01T12:17:45.923Z,941.55
2022-12-01T12:18:45.871Z,941.55
2022-12-01T12:20:07.192Z,941.53
2022-12-01T12:20:46.879Z,941.55
2022-12-01T12:21:45.813Z,941.55
2022-12-01T12:22:48.562Z,941.54
2022-12-01T12:23:46.846Z,941.58
2022-12-01T12:24:45.772Z,941.52
2022-12-01T12:25:45.779Z,941.55
2022-12-01T12:26:45.861Z,941.54
2022-12-01T12:27:45.730Z,941.55
2022-12-01T12:28:45.726Z,941.53
2022-12-01T12:29:45.734Z,941.54
2022-12-01T12:30:45.795Z,941.55
2022-12-01T12:31:45.745Z,941.49
2022-12-01T12:32:45.732Z,941.53
2022-12-01T12:33:45.695Z,941.52
2022-12-01T12:34:45.722Z,941.49
2022-12-01T12:35:46.455Z,941.50
2022-12-01T12:36:45.734Z,941.46
2022-12-01T12:37:45.653Z,941.47
2022-12-01T12:38:45.662Z,941.44
2022-12-01T12:39:45.604Z,941.44
2022-12-01T12:40:45.599Z,941.46
2022-12-01T12:41:45.601Z,941.45
2022-12-01T12:42:45.661Z,941.42
2022-12-01T12:43:45.568Z,941.44
2022-12-01T12:44:45.569Z,941.44
2022-12-01T12:45:45.564Z,941.44
2022-12-01T12:46:45.800Z,941.44
2022-12-01T12:47:45.533Z,941.45
2022-12-01T12:49:03.964Z,941.44
2022-12-01T12:49:46.803Z,941.42
2022-12-01T12:50:45.509Z,941.44
2022-12-01T12:51:45.639Z,941.42
2022-12-01T12:52:45.589Z,941.38
2022-12-01T12:53:46.530Z,941.40
2022-12-01T12:54:45.508Z,941.38
2022-12-01T12:55:45.536Z,941.48
2022-12-01T12:56:45.454Z,941.38
2022-12-01T12:57:45.445Z,941.43
2022-12-01T12:58:45.414Z,941.35
2022-12-01T12:59:45.412Z,941.37
2022-12-01T13:00:45.483Z,941.37
2022-12-01T13:01:45.480Z,941.41
2022-12-01T13:02:45.472Z,941.39
2022-12-01T13:03:45.445Z,941.39
2022-12-01T13:04:45.371Z,941.38
2022-12-01T13:05:45.364Z,941.40
2022-12-01T13:06:45.346Z,941.41
2022-12-01T13:07:45.470Z,941.39
2022-12-01T13:08:45.345Z,941.43
2022-12-01T13:09:45.303Z,941.40
2022-12-01T13:10:45.348Z,941.46
2022-12-01T13:11:45.282Z,941.46
2022-12-01T13:12:45.444Z,941.43
2022-12-01T13:13:45.340Z,941.41
2022-12-01T13:14:45.337Z,941.45
2022-12-01T13:15:45.324Z,941.42
2022-12-01T13:16:45.233Z,941.42
2022-12-01T13:17:45.223Z,941.45
2022-12-01T13:18:45.264Z,941.42
2022-12-01T13:19:45.221Z,941.41
2022-12-01T13:20:52.750Z,941.48
2022-12-01T13:21:45.271Z,941.41
2022-12-01T13:22:45.164Z,941.47
2022-12-01T13:23:45.176Z,941.45
2022-12-01T13:24:45.190Z,941.47
2022-12-01T13:25:45.138Z,941.46
2022-12-01T13:26:45.185Z,941.49
2022-12-01T13:27:45.134Z,941.43
2022-12-01T13:28:45.169Z,941.47
2022-12-01T13:29:45.083Z,941.48
2022-12-01T13:30:45.216Z,941.45
2022-12-01T13:31:45.228Z,941.44
2022-12-01T13:32:45.090Z,941.45
2022-12-01T13:33:45.053Z,941.48
2022-12-01T13:34:45.099Z,941.44
2022-12-01T13:35:45.034Z,941.44
2022-12-01T13:36:47.019Z,941.45
2022-12-01T13:37:45.018Z,941.47
2022-12-01T13:38:45.015Z,941.45
2022-12-01T13:39:45.068Z,941.46
2022-12-01T13:40:45.015Z,941.45
2022-12-01T13:41:44.968Z,941.45
2022-12-01T13:42:45.057Z,941.52
2022-12-01T13:43:44.985Z,941.45
2022-12-01T13:44:44.960Z,941.44
2022-12-01T13:45:44.988Z,941.46